Malaysia Virtual Airlines Airport Information Service

Kota Kinabalu

ICAO: WBKK Country: Malaysia
Latitude: 5.93721 Longitude: 116.051
Latest Arrival : MH2806 (WBGG-WBKK) Latest Departure : MH2621 (WBKK-WMKK)


WX CaptureLIVE
Data provided by noaa.gov | Fetched at 07:18:31

METAR : WBKK 160630Z VRB07KT 9999 FEW014 32/26 Q1008 NOSIG

TAF : WBKK 160500Z 1606/1706 29005KT 9999 FEW014 FEW016TCU BECMG 1612/1614 11005KT


Runway Data for WBKK
Data provided by openaviationdata.com

Runway ID Mag Var Hdg Length Elevation Surface ILS Freq ILS Id ILS Slope
2 0 22° 9829 ft 10 ft Asphalt 110.3 IKKS 3
20 0 202° 9829 ft 10 ft Asphalt -- -- --

Kota Kinabalu, Malaysia
Use only for reference purposes



Not for navigational purposes.